Página principal
METAR-TAF:

METAR-TAF

Aeroportos :

Rasht, Irão

latitude: 37-12N, longitude: 049-38E, altura: -7 m

Observação actual do tempo

O boletim foi feito há 54 minutos, às 18:00 UTC
Vento calmo
Temperatura 8°C
Humidade 100%
Pressão 1022 hPa
Visibilidade: 3000 m
Poucas nuvensa uma altura de 9000 ft
neblina

METAR: OIGG 231800Z 00000KT 3000 BR FEW090 08/08 Q1022

Hora: 22:24 (18:54 UTC)


TAF: em falta

Observações e previsões do tempo de mais de 4000 aeroportos (mensagens METAR e TAF).

As estações disponíveis são os pontos amarelos e vermelhos sobre o mapa.

Mova o rato sobre o mapa para ver o nome da estação.

Depois clique no ponto para visualizar as observações e previsões meteorológicas.

Para alterar o mapa : clique nos botões verdes com uma cruz preta para aumentar o zoom; no botão verde com uma pitada de zoom; ou nas setas verdes para mapas adjacentes.


METAR-TAF: